Time,TemperatureF,DewpointF,PressureIn,WindDirection,WindDirectionDegrees,WindSpeedMPH,WindSpeedGustMPH,Humidity,HourlyPrecipIn,Conditions,Clouds,dailyrainin,SoftwareType,DateUTC
2013-03-18 00:03:00,26.0,7.0,30.25,NE,45,0.0,0.0,43,0.00,,,0.00,,2013-03-18 04:03:00,
2013-03-18 00:13:00,26.0,7.0,30.25,NE,45,0.0,0.0,43,0.00,,,0.00,,2013-03-18 04:13:00,
2013-03-18 00:23:00,26.0,7.0,30.25,NE,45,0.0,3.0,44,0.00,,,0.00,,2013-03-18 04:23:00,
2013-03-18 00:33:00,26.0,8.0,30.26,NE,45,0.0,0.0,45,0.00,,,0.00,,2013-03-18 04:33:00,
2013-03-18 00:42:00,26.0,8.0,30.26,NE,45,0.0,0.0,45,0.00,,,0.00,,2013-03-18 04:42:00,
2013-03-18 00:53:00,26.0,8.0,30.25,NE,45,0.0,0.0,46,0.00,,,0.00,,2013-03-18 04:53:00,
2013-03-18 01:03:00,26.0,8.0,30.26,NE,45,0.0,0.0,46,0.00,,,0.00,,2013-03-18 05:03:00,
2013-03-18 01:12:00,26.0,8.0,30.26,NE,45,0.0,0.0,46,0.00,,,0.00,,2013-03-18 05:12:00,
2013-03-18 01:22:00,25.0,8.0,30.27,NE,45,0.0,0.0,47,0.00,,,0.00,,2013-03-18 05:22:00,
2013-03-18 01:32:00,25.0,8.0,30.28,NE,45,0.0,0.0,48,0.00,,,0.00,,2013-03-18 05:32:00,
2013-03-18 01:43:00,25.0,8.0,30.28,NE,45,0.0,0.0,48,0.00,,,0.00,,2013-03-18 05:43:00,
2013-03-18 01:52:00,24.0,8.0,30.28,NE,45,4.0,6.0,49,0.00,,,0.00,,2013-03-18 05:52:00,
2013-03-18 02:02:00,24.0,7.0,30.29,ENE,68,6.0,6.0,48,0.00,,,0.00,,2013-03-18 06:02:00,
2013-03-18 02:12:00,24.0,7.0,30.29,ENE,68,6.0,6.0,48,0.00,,,0.00,,2013-03-18 06:12:00,
2013-03-18 02:22:00,24.0,7.0,30.29,NE,45,0.0,2.0,48,0.00,,,0.00,,2013-03-18 06:22:00,
2013-03-18 02:32:00,24.0,7.0,30.29,NE,45,0.0,5.0,48,0.00,,,0.00,,2013-03-18 06:32:00,
2013-03-18 02:42:00,24.0,7.0,30.29,NE,45,0.0,5.0,48,0.00,,,0.00,,2013-03-18 06:42:00,
2013-03-18 02:52:00,23.0,6.0,30.30,NE,45,0.0,2.0,48,0.00,,,0.00,,2013-03-18 06:52:00,
2013-03-18 03:02:00,23.0,7.0,30.31,NE,45,0.0,0.0,49,0.00,,,0.00,,2013-03-18 07:02:00,
2013-03-18 03:12:00,23.0,7.0,30.31,NE,45,0.0,0.0,49,0.00,,,0.00,,2013-03-18 07:12:00,
2013-03-18 03:22:00,23.0,7.0,30.31,NE,45,0.0,0.0,49,0.00,,,0.00,,2013-03-18 07:22:00,
2013-03-18 03:33:00,23.0,7.0,30.32,NE,45,0.0,3.0,49,0.00,,,0.00,,2013-03-18 07:33:00,
2013-03-18 03:42:00,23.0,7.0,30.32,NE,45,0.0,3.0,49,0.00,,,0.00,,2013-03-18 07:42:00,
2013-03-18 03:53:00,22.0,6.0,30.32,NNE,23,0.0,3.0,49,0.00,,,0.00,,2013-03-18 07:53:00,
2013-03-18 04:02:00,22.0,6.0,30.32,NE,45,3.0,7.0,50,0.00,,,0.00,,2013-03-18 08:02:00,
2013-03-18 04:12:00,22.0,6.0,30.32,NE,45,3.0,7.0,50,0.00,,,0.00,,2013-03-18 08:12:00,
2013-03-18 04:22:00,22.0,6.0,30.32,NE,45,0.0,6.0,49,0.00,,,0.00,,2013-03-18 08:22:00,
2013-03-18 04:32:00,22.0,6.0,30.32,NE,45,2.0,2.0,49,0.00,,,0.00,,2013-03-18 08:32:00,
2013-03-18 04:43:00,22.0,6.0,30.32,NE,45,2.0,2.0,49,0.00,,,0.00,,2013-03-18 08:43:00,
2013-03-18 04:53:00,21.0,5.0,30.32,ENE,68,0.0,6.0,49,0.00,,,0.00,,2013-03-18 08:53:00,
2013-03-18 05:02:00,21.0,5.0,30.33,NE,45,0.0,0.0,49,0.00,,,0.00,,2013-03-18 09:02:00,
2013-03-18 05:12:00,21.0,5.0,30.33,NE,45,0.0,0.0,49,0.00,,,0.00,,2013-03-18 09:12:00,
2013-03-18 05:22:00,21.0,5.0,30.34,NE,45,0.0,4.0,49,0.00,,,0.00,,2013-03-18 09:22:00,
2013-03-18 05:33:00,21.0,5.0,30.34,NE,45,0.0,0.0,49,0.00,,,0.00,,2013-03-18 09:33:00,
2013-03-18 05:43:00,21.0,5.0,30.34,NE,45,0.0,0.0,49,0.00,,,0.00,,2013-03-18 09:43:00,
2013-03-18 05:53:00,20.0,4.0,30.34,NE,45,2.0,2.0,49,0.00,,,0.00,,2013-03-18 09:53:00,
2013-03-18 06:03:00,20.0,4.0,30.35,NE,45,0.0,2.0,49,0.00,,,0.00,,2013-03-18 10:03:00,
2013-03-18 06:13:00,20.0,4.0,30.35,NE,45,0.0,2.0,49,0.00,,,0.00,,2013-03-18 10:13:00,
2013-03-18 06:23:00,20.0,4.0,30.36,NE,45,0.0,0.0,50,0.00,,,0.00,,2013-03-18 10:23:00,
2013-03-18 06:33:00,20.0,4.0,30.37,NE,45,0.0,0.0,50,0.00,,,0.00,,2013-03-18 10:33:00,
2013-03-18 06:42:00,20.0,4.0,30.37,NE,45,0.0,0.0,50,0.00,,,0.00,,2013-03-18 10:42:00,
2013-03-18 06:53:00,19.0,3.0,30.37,NE,45,0.0,1.0,50,0.00,,,0.00,,2013-03-18 10:53:00,
2013-03-18 07:03:00,19.0,3.0,30.38,NE,45,0.0,3.0,50,0.00,,,0.00,,2013-03-18 11:03:00,
2013-03-18 07:13:00,19.0,3.0,30.38,NE,45,0.0,3.0,50,0.00,,,0.00,,2013-03-18 11:13:00,
2013-03-18 07:22:00,19.0,3.0,30.37,NE,45,3.0,5.0,50,0.00,,,0.00,,2013-03-18 11:22:00,
2013-03-18 07:32:00,19.0,4.0,30.38,NE,45,0.0,2.0,51,0.00,,,0.00,,2013-03-18 11:32:00,
2013-03-18 07:42:00,19.0,4.0,30.38,NE,45,0.0,2.0,51,0.00,,,0.00,,2013-03-18 11:42:00,
2013-03-18 07:53:00,20.0,5.0,30.38,NE,45,2.0,3.0,51,0.00,,,0.00,,2013-03-18 11:53:00,
2013-03-18 08:02:00,20.0,4.0,30.38,NE,45,3.0,5.0,50,0.00,,,0.00,,2013-03-18 12:02:00,
2013-03-18 08:12:00,20.0,4.0,30.38,NE,45,3.0,5.0,50,0.00,,,0.00,,2013-03-18 12:12:00,
2013-03-18 08:22:00,21.0,5.0,30.39,NE,45,3.0,3.0,50,0.00,,,0.00,,2013-03-18 12:22:00,
2013-03-18 08:32:00,22.0,6.0,30.39,NE,45,4.0,4.0,49,0.00,,,0.00,,2013-03-18 12:32:00,
2013-03-18 08:43:00,22.0,6.0,30.39,NE,45,4.0,4.0,49,0.00,,,0.00,,2013-03-18 12:43:00,
2013-03-18 08:52:00,23.0,6.0,30.38,NE,45,3.0,4.0,48,0.00,,,0.00,,2013-03-18 12:52:00,
2013-03-18 09:02:00,24.0,7.0,30.39,NE,45,4.0,6.0,47,0.00,,,0.00,,2013-03-18 13:02:00,
2013-03-18 09:12:00,24.0,7.0,30.39,NE,45,4.0,6.0,47,0.00,,,0.00,,2013-03-18 13:12:00,
2013-03-18 09:22:00,25.0,7.0,30.38,NE,45,9.0,9.0,45,0.00,,,0.00,,2013-03-18 13:22:00,
2013-03-18 09:33:00,26.0,7.0,30.38,NE,45,5.0,8.0,44,0.00,,,0.00,,2013-03-18 13:33:00,
2013-03-18 09:42:00,26.0,7.0,30.38,NE,45,5.0,8.0,44,0.00,,,0.00,,2013-03-18 13:42:00,
2013-03-18 09:52:00,27.0,8.0,30.38,NE,45,3.0,3.0,43,0.00,,,0.00,,2013-03-18 13:52:00,
2013-03-18 10:02:00,28.0,8.0,30.38,NE,45,0.0,7.0,42,0.00,,,0.00,,2013-03-18 14:02:00,
2013-03-18 10:12:00,28.0,8.0,30.38,NE,45,0.0,7.0,42,0.00,,,0.00,,2013-03-18 14:12:00,
2013-03-18 10:22:00,30.0,9.0,30.38,NE,45,2.0,2.0,41,0.00,,,0.00,,2013-03-18 14:22:00,
2013-03-18 10:32:00,31.0,10.0,30.38,ENE,68,0.0,0.0,40,0.00,,,0.00,,2013-03-18 14:32:00,
2013-03-18 10:42:00,31.0,10.0,30.38,ENE,68,0.0,0.0,40,0.00,,,0.00,,2013-03-18 14:42:00,
2013-03-18 10:52:00,32.0,9.0,30.37,NNE,23,0.0,2.0,38,0.00,,,0.00,,2013-03-18 14:52:00,
2013-03-18 11:02:00,32.0,9.0,30.37,SE,135,0.0,2.0,38,0.00,,,0.00,,2013-03-18 15:02:00,
2013-03-18 11:12:00,32.0,9.0,30.37,SE,135,0.0,2.0,38,0.00,,,0.00,,2013-03-18 15:12:00,
2013-03-18 11:22:00,34.0,11.0,30.36,NE,45,0.0,3.0,37,0.00,,,0.00,,2013-03-18 15:22:00,
2013-03-18 11:33:00,34.0,9.0,30.35,NE,45,4.0,5.0,35,0.00,,,0.00,,2013-03-18 15:33:00,
2013-03-18 11:43:00,34.0,9.0,30.35,NE,45,4.0,5.0,35,0.00,,,0.00,,2013-03-18 15:43:00,
2013-03-18 11:52:00,35.0,11.0,30.35,NE,45,0.0,0.0,36,0.00,,,0.00,,2013-03-18 15:52:00,
2013-03-18 12:03:00,36.0,11.0,30.35,NE,45,0.0,4.0,35,0.00,,,0.00,,2013-03-18 16:03:00,
2013-03-18 12:12:00,36.0,11.0,30.35,NE,45,0.0,4.0,35,0.00,,,0.00,,2013-03-18 16:12:00,
2013-03-18 12:23:00,37.0,11.0,30.34,ENE,68,0.0,3.0,34,0.00,,,0.00,,2013-03-18 16:23:00,
2013-03-18 12:33:00,39.0,13.0,30.34,NE,45,0.0,2.0,34,0.00,,,0.00,,2013-03-18 16:33:00,
2013-03-18 12:42:00,39.0,13.0,30.34,NE,45,0.0,2.0,34,0.00,,,0.00,,2013-03-18 16:42:00,
2013-03-18 12:52:00,43.0,15.0,30.34,SE,135,0.0,0.0,32,0.00,,,0.00,,2013-03-18 16:52:00,
2013-03-18 13:03:00,52.0,19.0,30.35,NE,45,4.0,4.0,27,0.00,,,0.00,,2013-03-18 17:03:00,
2013-03-18 13:12:00,52.0,19.0,30.35,NE,45,4.0,4.0,27,0.00,,,0.00,,2013-03-18 17:12:00,
2013-03-18 13:22:00,53.0,18.0,30.35,SSE,158,6.0,6.0,25,0.00,,,0.00,,2013-03-18 17:22:00,
2013-03-18 13:32:00,47.0,13.0,30.34,ESE,113,0.0,5.0,25,0.00,,,0.00,,2013-03-18 17:32:00,
2013-03-18 13:42:00,47.0,13.0,30.34,ESE,113,0.0,5.0,25,0.00,,,0.00,,2013-03-18 17:42:00,
2013-03-18 13:52:00,46.0,12.0,30.34,SE,135,0.0,0.0,25,0.00,,,0.00,,2013-03-18 17:52:00,
2013-03-18 14:02:00,47.0,13.0,30.33,SE,135,0.0,2.0,25,0.00,,,0.00,,2013-03-18 18:02:00,
2013-03-18 14:12:00,47.0,13.0,30.33,SE,135,0.0,2.0,25,0.00,,,0.00,,2013-03-18 18:12:00,
2013-03-18 14:22:00,46.0,12.0,30.32,SE,135,2.0,2.0,25,0.00,,,0.00,,2013-03-18 18:22:00,
2013-03-18 14:32:00,44.0,10.0,30.30,SE,135,0.0,7.0,25,0.00,,,0.00,,2013-03-18 18:32:00,
2013-03-18 14:42:00,44.0,10.0,30.30,SE,135,0.0,7.0,25,0.00,,,0.00,,2013-03-18 18:42:00,
2013-03-18 14:52:00,43.0,10.0,30.30,SE,135,0.0,0.0,26,0.00,,,0.00,,2013-03-18 18:52:00,
2013-03-18 15:03:00,43.0,10.0,30.29,SSE,158,0.0,6.0,26,0.00,,,0.00,,2013-03-18 19:03:00,
2013-03-18 15:12:00,43.0,10.0,30.29,SSE,158,0.0,6.0,26,0.00,,,0.00,,2013-03-18 19:12:00,
2013-03-18 15:22:00,42.0,10.0,30.28,SSE,158,3.0,7.0,26,0.00,,,0.00,,2013-03-18 19:22:00,
2013-03-18 15:33:00,42.0,10.0,30.28,SSE,158,4.0,6.0,27,0.00,,,0.00,,2013-03-18 19:33:00,
2013-03-18 15:42:00,42.0,10.0,30.28,SSE,158,4.0,6.0,27,0.00,,,0.00,,2013-03-18 19:42:00,
2013-03-18 15:52:00,42.0,11.0,30.28,ESE,113,5.0,6.0,28,0.00,,,0.00,,2013-03-18 19:52:00,
2013-03-18 16:03:00,40.0,13.0,30.28,SSE,158,5.0,8.0,33,0.00,,,0.00,,2013-03-18 20:03:00,
2013-03-18 16:12:00,40.0,13.0,30.28,SSE,158,5.0,8.0,33,0.00,,,0.00,,2013-03-18 20:12:00,
2013-03-18 16:23:00,39.0,14.0,30.28,SE,135,5.0,7.0,35,0.00,,,0.00,,2013-03-18 20:23:00,
2013-03-18 16:33:00,37.0,13.0,30.25,SE,144,4.0,10.0,37,0.00,,,0.00,,2013-03-18 20:33:00,
2013-03-18 16:42:00,37.0,13.0,30.25,SE,144,4.0,10.0,37,0.00,,,0.00,,2013-03-18 20:42:00,
2013-03-18 16:52:00,36.0,13.0,30.24,SSE,167,8.0,10.0,39,0.00,,,0.00,,2013-03-18 20:52:00,
2013-03-18 17:02:00,35.0,14.0,30.24,SSE,158,5.0,10.0,41,0.00,,,0.00,,2013-03-18 21:02:00,
2013-03-18 17:12:00,35.0,14.0,30.24,SSE,158,5.0,10.0,41,0.00,,,0.00,,2013-03-18 21:12:00,
2013-03-18 17:22:00,35.0,14.0,30.24,SSE,154,5.0,7.0,41,0.00,,,0.00,,2013-03-18 21:22:00,
2013-03-18 17:33:00,34.0,13.0,30.24,SE,135,4.0,8.0,42,0.00,,,0.00,,2013-03-18 21:33:00,
2013-03-18 17:42:00,34.0,13.0,30.24,SE,135,4.0,8.0,42,0.00,,,0.00,,2013-03-18 21:42:00,
2013-03-18 17:52:00,34.0,14.0,30.24,SSE,149,5.0,8.0,43,0.00,,,0.00,,2013-03-18 21:52:00,
2013-03-18 18:03:00,33.0,13.0,30.24,East,90,0.0,4.0,44,0.00,,,0.00,,2013-03-18 22:03:00,
2013-03-18 18:13:00,33.0,13.0,30.24,East,90,0.0,4.0,44,0.00,,,0.00,,2013-03-18 22:13:00,
2013-03-18 18:23:00,33.0,14.0,30.25,SSE,158,0.0,5.0,45,0.00,,,0.00,,2013-03-18 22:23:00,
2013-03-18 18:33:00,32.0,14.0,30.24,SE,135,5.0,7.0,47,0.00,,,0.00,,2013-03-18 22:33:00,
2013-03-18 18:42:00,32.0,14.0,30.24,SE,135,5.0,7.0,47,0.00,,,0.00,,2013-03-18 22:42:00,
2013-03-18 18:52:00,32.0,15.0,30.24,ENE,68,2.0,5.0,48,0.00,,,0.00,,2013-03-18 22:52:00,
2013-03-18 19:03:00,32.0,15.0,30.25,SSE,158,2.0,9.0,50,0.00,,,0.00,,2013-03-18 23:03:00,
2013-03-18 19:12:00,32.0,15.0,30.25,SSE,158,2.0,9.0,50,0.00,,,0.00,,2013-03-18 23:12:00,
2013-03-18 19:22:00,31.0,15.0,30.24,SSE,158,0.0,1.0,51,0.00,,,0.00,,2013-03-18 23:22:00,
2013-03-18 19:32:00,31.0,15.0,30.23,SSE,158,0.0,5.0,52,0.00,,,0.00,,2013-03-18 23:32:00,
2013-03-18 19:42:00,31.0,15.0,30.23,SSE,158,0.0,5.0,52,0.00,,,0.00,,2013-03-18 23:42:00,
2013-03-18 19:53:00,31.0,16.0,30.22,SSE,157,2.0,8.0,54,0.00,,,0.00,,2013-03-18 23:53:00,
2013-03-18 20:02:00,31.0,17.0,30.21,SSE,158,5.0,6.0,56,0.00,,,0.00,,2013-03-19 00:02:00,
2013-03-18 20:12:00,31.0,17.0,30.21,SSE,158,5.0,6.0,56,0.00,,,0.00,,2013-03-19 00:12:00,
2013-03-18 20:23:00,31.0,18.0,30.21,SSE,158,0.0,8.0,57,0.00,,,0.00,,2013-03-19 00:23:00,
2013-03-18 20:32:00,31.0,18.0,30.21,SE,136,3.0,4.0,59,0.00,,,0.00,,2013-03-19 00:32:00,
2013-03-18 20:42:00,31.0,18.0,30.21,SE,136,3.0,4.0,59,0.00,,,0.00,,2013-03-19 00:42:00,
2013-03-18 20:52:00,31.0,19.0,30.21,SSE,158,3.0,9.0,60,0.00,,,0.00,,2013-03-19 00:52:00,
2013-03-18 21:02:00,31.0,19.0,30.21,SSE,158,5.0,9.0,61,0.00,,,0.00,,2013-03-19 01:02:00,
2013-03-18 21:12:00,31.0,19.0,30.21,SSE,158,5.0,9.0,61,0.00,,,0.00,,2013-03-19 01:12:00,
2013-03-18 21:22:00,31.0,19.0,30.21,SSE,158,6.0,9.0,61,0.00,,,0.00,,2013-03-19 01:22:00,
2013-03-18 21:32:00,31.0,20.0,30.20,SSE,158,4.0,7.0,62,0.00,,,0.00,,2013-03-19 01:32:00,
2013-03-18 21:42:00,31.0,20.0,30.20,SSE,158,4.0,7.0,62,0.00,,,0.00,,2013-03-19 01:42:00,
2013-03-18 21:52:00,30.0,20.0,30.19,SSE,157,6.0,13.0,66,0.00,,,0.00,,2013-03-19 01:52:00,
2013-03-18 22:03:00,29.0,20.0,30.19,SE,135,4.0,6.0,70,0.00,,,0.00,,2013-03-19 02:03:00,
2013-03-18 22:12:00,29.0,20.0,30.19,SE,135,4.0,6.0,70,0.00,,,0.00,,2013-03-19 02:12:00,
2013-03-18 22:22:00,29.0,21.0,30.19,SSE,165,5.0,6.0,73,0.00,,,0.00,,2013-03-19 02:22:00,
2013-03-18 22:33:00,29.0,22.0,30.18,SE,135,2.0,9.0,74,0.00,,,0.00,,2013-03-19 02:33:00,
2013-03-18 22:42:00,29.0,22.0,30.18,SE,135,2.0,9.0,74,0.00,,,0.00,,2013-03-19 02:42:00,
2013-03-18 22:53:00,29.0,22.0,30.17,SE,135,0.0,4.0,75,0.00,,,0.00,,2013-03-19 02:53:00,
2013-03-18 23:02:00,29.0,22.0,30.17,SE,135,0.0,0.0,76,0.00,,,0.00,,2013-03-19 03:02:00,
2013-03-18 23:12:00,29.0,22.0,30.17,SE,135,0.0,0.0,76,0.00,,,0.00,,2013-03-19 03:12:00,
2013-03-18 23:22:00,29.0,22.0,30.17,SE,135,0.0,0.0,76,0.00,,,0.00,,2013-03-19 03:22:00,
2013-03-18 23:33:00,29.0,23.0,30.15,ESE,113,0.0,0.0,77,0.00,,,0.00,,2013-03-19 03:33:00,
2013-03-18 23:43:00,29.0,23.0,30.15,ESE,113,0.0,0.0,77,0.00,,,0.00,,2013-03-19 03:43:00,
2013-03-18 23:54:00,29.0,23.0,30.14,ENE,68,0.0,0.0,77,0.00,,,0.00,,2013-03-19 03:54:00,